createdAt,value
2022-12-08T00:01:30.780Z,3.25
2022-12-08T00:04:01.442Z,3.29
2022-12-08T00:06:55.537Z,3.31
2022-12-08T00:09:38.943Z,3.31
2022-12-08T00:12:12.646Z,3.34
2022-12-08T00:14:44.993Z,3.35
2022-12-08T00:17:16.296Z,3.37
2022-12-08T00:19:45.091Z,3.36
2022-12-08T00:22:12.221Z,3.38
2022-12-08T00:24:41.227Z,3.39
2022-12-08T00:27:10.014Z,3.40
2022-12-08T00:29:36.772Z,3.41
2022-12-08T00:32:03.586Z,3.42
2022-12-08T00:34:31.743Z,3.42
2022-12-08T00:36:58.909Z,3.41
2022-12-08T00:39:29.813Z,3.42
2022-12-08T00:42:15.228Z,3.40
2022-12-08T00:44:43.828Z,3.40
2022-12-08T00:47:11.264Z,3.38
2022-12-08T00:49:38.185Z,3.38
2022-12-08T00:52:05.308Z,3.36
2022-12-08T00:54:31.944Z,3.35
2022-12-08T00:56:58.637Z,3.34
2022-12-08T00:59:28.736Z,3.32
2022-12-08T01:01:59.585Z,3.30
2022-12-08T01:04:26.941Z,3.29
2022-12-08T01:06:53.817Z,3.29
2022-12-08T01:09:20.905Z,3.26
2022-12-08T01:11:47.649Z,3.25
2022-12-08T01:14:14.487Z,3.24
2022-12-08T01:16:44.033Z,3.24
2022-12-08T01:19:13.259Z,3.24
2022-12-08T01:21:40.989Z,3.25
2022-12-08T01:24:10.553Z,3.26
2022-12-08T01:26:37.395Z,3.28
2022-12-08T01:29:04.229Z,3.28
2022-12-08T01:31:31.293Z,3.29
2022-12-08T01:33:58.826Z,3.31
2022-12-08T01:36:28.470Z,3.31
2022-12-08T01:38:59.470Z,3.33
2022-12-08T01:41:29.841Z,3.30
2022-12-08T01:44:08.848Z,3.30
2022-12-08T01:46:38.618Z,3.30
2022-12-08T01:49:32.048Z,3.29
2022-12-08T01:52:10.798Z,3.29
2022-12-08T01:54:46.616Z,3.31
2022-12-08T01:57:48.945Z,3.28
2022-12-08T02:00:18.514Z,3.24
2022-12-08T02:03:02.681Z,3.17
2022-12-08T02:05:33.358Z,3.12
2022-12-08T02:08:04.542Z,3.07
2022-12-08T02:10:34.104Z,3.06
2022-12-08T02:13:02.728Z,3.03
2022-12-08T02:15:48.437Z,2.98
2022-12-08T02:18:18.192Z,2.97
2022-12-08T02:20:47.395Z,3.00
2022-12-08T02:23:34.530Z,3.02
2022-12-08T02:26:34.159Z,3.04
2022-12-08T02:29:39.802Z,3.07
2022-12-08T02:32:28.176Z,3.07
2022-12-08T02:35:10.888Z,3.08
2022-12-08T02:37:45.334Z,3.07
2022-12-08T02:41:04.008Z,3.05
2022-12-08T02:43:38.347Z,3.04
2022-12-08T02:46:21.836Z,3.04
2022-12-08T02:48:51.434Z,3.06
2022-12-08T02:51:18.881Z,3.07
2022-12-08T02:53:46.293Z,3.07
2022-12-08T02:56:54.976Z,3.08
2022-12-08T02:59:41.865Z,3.10
2022-12-08T03:02:50.180Z,3.10
2022-12-08T03:05:28.748Z,3.11
2022-12-08T03:08:17.498Z,3.14
2022-12-08T03:10:50.813Z,3.14
2022-12-08T03:13:25.906Z,3.17
2022-12-08T03:15:55.010Z,3.17
2022-12-08T03:18:26.621Z,3.19
2022-12-08T03:20:53.479Z,3.21
2022-12-08T03:23:25.026Z,3.21
2022-12-08T03:26:08.906Z,3.24
2022-12-08T03:28:35.702Z,3.24
2022-12-08T03:31:05.811Z,3.26
2022-12-08T03:33:37.077Z,3.23
2022-12-08T03:36:05.473Z,3.22
2022-12-08T03:38:42.702Z,3.21
2022-12-08T03:41:18.350Z,3.21
2022-12-08T03:43:59.545Z,3.21
2022-12-08T03:48:54.678Z,3.20
2022-12-08T03:51:24.991Z,3.17
2022-12-08T03:53:52.478Z,3.16
2022-12-08T03:56:33.966Z,3.14
2022-12-08T03:59:02.498Z,3.11
2022-12-08T04:01:30.438Z,3.09
2022-12-08T04:03:57.068Z,3.07
2022-12-08T04:06:26.862Z,3.07
2022-12-08T04:08:53.985Z,3.06
2022-12-08T04:11:21.342Z,3.03
2022-12-08T04:13:50.588Z,3.03
2022-12-08T04:16:24.260Z,2.97
2022-12-08T04:18:51.028Z,2.95
2022-12-08T04:21:17.961Z,2.92
2022-12-08T04:23:45.174Z,2.90
2022-12-08T04:26:12.541Z,2.90
2022-12-08T04:28:39.321Z,2.88
2022-12-08T04:31:07.113Z,2.87
2022-12-08T04:33:35.144Z,2.86
2022-12-08T04:36:03.164Z,2.85
2022-12-08T04:38:29.900Z,2.86
2022-12-08T04:40:56.465Z,2.86
2022-12-08T04:43:23.609Z,2.85
2022-12-08T04:45:50.573Z,2.85
2022-12-08T04:48:17.492Z,2.85
2022-12-08T04:50:45.545Z,2.85
2022-12-08T04:53:13.468Z,2.84
2022-12-08T04:55:45.470Z,2.84
2022-12-08T04:58:14.200Z,2.85
2022-12-08T05:00:41.423Z,2.84
2022-12-08T05:03:08.693Z,2.83
2022-12-08T05:05:35.976Z,2.84
2022-12-08T05:08:06.324Z,2.84
2022-12-08T05:10:33.632Z,2.85
2022-12-08T05:13:00.629Z,2.87
2022-12-08T05:15:28.403Z,2.89
2022-12-08T05:17:55.131Z,2.92
2022-12-08T05:20:21.864Z,2.90
2022-12-08T05:22:48.830Z,2.92
2022-12-08T05:25:15.709Z,2.92
2022-12-08T05:27:43.173Z,2.90
2022-12-08T05:30:12.434Z,2.92
2022-12-08T05:32:39.852Z,2.90
2022-12-08T05:35:08.334Z,2.88
2022-12-08T05:37:36.178Z,2.87
2022-12-08T05:40:04.333Z,2.83
2022-12-08T05:42:30.887Z,2.84
2022-12-08T05:44:57.409Z,2.82
2022-12-08T05:47:26.304Z,2.80
2022-12-08T05:49:52.898Z,2.77
2022-12-08T05:52:22.831Z,2.74
2022-12-08T05:54:50.065Z,2.72
2022-12-08T05:57:16.598Z,2.71
2022-12-08T05:59:43.452Z,2.70
2022-12-08T06:02:10.634Z,2.69
2022-12-08T06:04:37.242Z,2.67
2022-12-08T06:07:04.474Z,2.67
2022-12-08T06:09:31.498Z,2.66
2022-12-08T06:12:00.506Z,2.67
2022-12-08T06:14:27.124Z,2.68
2022-12-08T06:16:54.159Z,2.66
2022-12-08T06:19:23.203Z,2.68
2022-12-08T06:21:49.886Z,2.69
2022-12-08T06:24:18.969Z,2.68
2022-12-08T06:26:46.918Z,2.70
2022-12-08T06:29:14.036Z,2.70
2022-12-08T06:31:40.743Z,2.70
2022-12-08T06:34:07.292Z,2.68
2022-12-08T06:36:35.011Z,2.67
2022-12-08T06:39:01.864Z,2.66
2022-12-08T06:41:28.391Z,2.64
2022-12-08T06:43:58.677Z,2.63
2022-12-08T06:46:25.425Z,2.66
2022-12-08T06:48:52.071Z,2.62
2022-12-08T06:51:20.317Z,2.62
2022-12-08T06:53:48.347Z,2.61
2022-12-08T06:56:16.160Z,2.62
2022-12-08T06:58:46.088Z,2.61
2022-12-08T07:01:17.561Z,2.59
2022-12-08T07:03:48.077Z,2.57
2022-12-08T07:06:24.953Z,2.55
2022-12-08T07:08:55.247Z,2.54
2022-12-08T07:11:22.813Z,2.52
2022-12-08T07:13:52.584Z,2.52
2022-12-08T07:16:19.499Z,2.50
2022-12-08T07:18:46.302Z,2.50
2022-12-08T07:21:15.299Z,2.48
2022-12-08T07:23:42.977Z,2.48
2022-12-08T07:26:11.953Z,2.44
2022-12-08T07:28:40.640Z,2.43
2022-12-08T07:31:09.094Z,2.42
2022-12-08T07:33:36.204Z,2.41
2022-12-08T07:36:05.910Z,2.36
2022-12-08T07:38:33.346Z,2.36
2022-12-08T07:40:59.986Z,2.36
2022-12-08T07:43:27.734Z,2.34
2022-12-08T07:45:54.455Z,2.34
2022-12-08T07:48:21.188Z,2.34
2022-12-08T07:50:48.525Z,2.33
2022-12-08T07:53:15.479Z,2.35
2022-12-08T07:55:43.484Z,2.37
2022-12-08T07:58:13.199Z,2.35
2022-12-08T08:00:40.230Z,2.38
2022-12-08T08:03:12.235Z,2.40
2022-12-08T08:05:38.928Z,2.40
2022-12-08T08:08:06.294Z,2.38
2022-12-08T08:10:34.460Z,2.35
2022-12-08T08:13:01.530Z,2.38
2022-12-08T08:15:29.009Z,2.40
2022-12-08T08:17:55.661Z,2.37
2022-12-08T08:20:23.059Z,2.39
2022-12-08T08:22:55.683Z,2.38
2022-12-08T08:25:25.305Z,2.37
2022-12-08T08:27:52.384Z,2.38
2022-12-08T08:30:21.011Z,2.40
2022-12-08T08:32:49.205Z,2.41
2022-12-08T08:35:16.261Z,2.43
2022-12-08T08:37:47.251Z,2.42
2022-12-08T08:40:16.094Z,2.42
2022-12-08T08:42:46.054Z,2.41
2022-12-08T08:45:15.551Z,2.41
2022-12-08T08:47:42.071Z,2.44
2022-12-08T08:50:09.282Z,2.47
2022-12-08T08:52:36.080Z,2.49
2022-12-08T08:55:05.930Z,2.51
2022-12-08T08:57:34.009Z,2.51
2022-12-08T09:00:00.598Z,2.53
2022-12-08T09:02:27.481Z,2.51
2022-12-08T09:04:54.345Z,2.48
2022-12-08T09:07:21.004Z,2.49
2022-12-08T09:09:47.737Z,2.48
2022-12-08T09:12:14.291Z,2.49
2022-12-08T09:14:41.279Z,2.51
2022-12-08T09:17:09.178Z,2.52
2022-12-08T09:19:36.097Z,2.56
2022-12-08T09:22:03.040Z,2.57
2022-12-08T09:24:29.954Z,2.56
2022-12-08T09:26:56.665Z,2.60
2022-12-08T09:29:31.105Z,2.60
2022-12-08T09:32:00.821Z,2.61
2022-12-08T09:34:28.942Z,2.61
2022-12-08T09:36:56.649Z,2.60
2022-12-08T09:39:23.620Z,2.62
2022-12-08T09:41:58.671Z,2.62
2022-12-08T09:44:34.151Z,2.64
2022-12-08T09:47:03.299Z,2.67
2022-12-08T09:49:39.065Z,2.72
2022-12-08T09:52:12.587Z,2.75
2022-12-08T09:54:41.081Z,2.76
2022-12-08T09:57:15.424Z,2.74
2022-12-08T09:59:48.047Z,2.74
2022-12-08T10:02:28.604Z,2.76
2022-12-08T10:04:56.904Z,2.76
2022-12-08T10:08:14.133Z,2.79
2022-12-08T10:10:53.719Z,2.79
2022-12-08T10:13:35.370Z,2.79
2022-12-08T10:16:39.897Z,2.81
2022-12-08T10:19:22.553Z,2.87
2022-12-08T10:21:50.373Z,2.87
2022-12-08T10:24:34.872Z,2.90
2022-12-08T10:27:02.699Z,2.94
2022-12-08T10:29:29.640Z,2.95
2022-12-08T10:31:58.679Z,2.96
2022-12-08T10:34:26.095Z,2.96
2022-12-08T10:37:00.789Z,2.94
2022-12-08T10:39:47.225Z,2.97
2022-12-08T10:42:13.725Z,2.98
2022-12-08T10:44:59.759Z,2.97
2022-12-08T10:47:28.891Z,2.99
2022-12-08T10:50:14.475Z,2.98
2022-12-08T10:52:41.690Z,2.97
2022-12-08T10:55:20.219Z,2.98
2022-12-08T10:57:49.110Z,2.97
2022-12-08T11:00:18.769Z,2.99
2022-12-08T11:03:22.997Z,2.99
2022-12-08T11:06:03.993Z,3.02
2022-12-08T11:08:34.102Z,3.02
2022-12-08T11:11:01.291Z,3.04
2022-12-08T11:13:30.209Z,3.03
2022-12-08T11:15:57.710Z,3.02
2022-12-08T11:18:40.323Z,3.06
2022-12-08T11:21:15.876Z,3.00
2022-12-08T11:23:46.942Z,2.96
2022-12-08T11:26:19.314Z,2.96
2022-12-08T11:28:46.503Z,2.96
2022-12-08T11:31:35.011Z,2.96
2022-12-08T11:34:03.058Z,2.92
2022-12-08T11:36:34.128Z,2.88
2022-12-08T11:39:04.711Z,2.84
2022-12-08T11:41:46.631Z,2.83
2022-12-08T11:44:35.212Z,2.80
2022-12-08T11:47:11.393Z,2.76
2022-12-08T11:49:40.320Z,2.73
2022-12-08T11:52:45.241Z,2.72
2022-12-08T11:55:49.994Z,2.72
2022-12-08T11:58:23.978Z,2.71
2022-12-08T12:00:52.935Z,2.76
2022-12-08T12:03:38.718Z,2.82
2022-12-08T12:06:46.330Z,2.80
2022-12-08T12:09:15.720Z,2.85
2022-12-08T12:12:19.329Z,2.87
2022-12-08T12:14:52.156Z,2.93
2022-12-08T12:17:40.567Z,2.97
2022-12-08T12:20:47.545Z,3.04
2022-12-08T12:23:21.679Z,2.98
2022-12-08T12:26:07.874Z,2.97
2022-12-08T12:28:50.047Z,3.04
2022-12-08T12:31:22.841Z,3.06
2022-12-08T12:33:51.052Z,3.12
2022-12-08T12:36:18.588Z,3.23
2022-12-08T12:39:04.494Z,3.27
2022-12-08T12:41:55.972Z,3.27
2022-12-08T12:44:36.734Z,3.23
2022-12-08T12:47:09.261Z,3.16
2022-12-08T12:49:50.719Z,3.15
2022-12-08T12:52:18.108Z,3.30
2022-12-08T12:55:13.221Z,3.36
2022-12-08T12:57:51.604Z,3.50
2022-12-08T13:00:19.861Z,3.62
2022-12-08T13:02:52.202Z,3.80
2022-12-08T13:05:28.965Z,3.84
2022-12-08T13:08:02.533Z,3.91
2022-12-08T13:10:39.406Z,3.94
2022-12-08T13:13:16.435Z,4.13
2022-12-08T13:16:18.545Z,4.12
2022-12-08T13:18:51.307Z,4.03
2022-12-08T13:21:23.090Z,3.92
2022-12-08T13:24:09.740Z,3.76
2022-12-08T13:26:47.496Z,3.62
2022-12-08T13:29:23.070Z,3.54
2022-12-08T13:31:58.616Z,3.52
2022-12-08T13:34:46.749Z,3.43
2022-12-08T13:37:13.671Z,3.36
2022-12-08T13:39:40.247Z,3.35
2022-12-08T13:42:13.513Z,3.29
2022-12-08T13:45:33.414Z,3.23
2022-12-08T13:49:09.633Z,3.12
2022-12-08T13:57:21.469Z,3.00
2022-12-08T13:59:49.261Z,2.96
2022-12-08T14:02:25.382Z,2.93
2022-12-08T14:07:42.202Z,3.19
2022-12-08T14:10:15.148Z,3.32
2022-12-08T14:12:46.939Z,3.37
2022-12-08T14:15:16.010Z,3.34
2022-12-08T14:17:52.320Z,3.33
2022-12-08T14:20:42.557Z,3.29
2022-12-08T14:23:22.330Z,3.31
2022-12-08T14:25:48.977Z,3.26
2022-12-08T14:28:16.015Z,3.20
2022-12-08T14:30:43.372Z,3.15
2022-12-08T14:33:16.937Z,3.10
2022-12-08T14:35:53.763Z,3.08
2022-12-08T14:38:23.729Z,3.05
2022-12-08T14:41:03.805Z,2.99
2022-12-08T14:43:33.533Z,2.92
2022-12-08T14:46:03.370Z,2.86
2022-12-08T14:48:39.847Z,2.81
2022-12-08T14:51:21.612Z,2.73
2022-12-08T14:54:01.771Z,2.68
2022-12-08T14:56:50.442Z,2.66
2022-12-08T14:59:25.786Z,2.62
2022-12-08T15:02:09.308Z,2.56
2022-12-08T15:04:39.300Z,2.49
2022-12-08T15:07:22.294Z,2.42
2022-12-08T15:10:06.083Z,2.38
2022-12-08T15:12:33.462Z,2.32
2022-12-08T15:15:15.450Z,2.27
2022-12-08T15:17:50.251Z,2.23
2022-12-08T15:20:39.310Z,2.20
2022-12-08T15:23:07.607Z,2.18
2022-12-08T15:25:35.300Z,2.18
2022-12-08T15:28:05.327Z,2.20
2022-12-08T15:30:32.366Z,2.21
2022-12-08T15:32:59.612Z,2.21
2022-12-08T15:35:26.256Z,2.24
2022-12-08T15:37:54.049Z,2.22
2022-12-08T15:40:23.301Z,2.18
2022-12-08T15:42:53.677Z,2.18
2022-12-08T15:45:29.546Z,2.20
2022-12-08T15:47:57.001Z,2.25
2022-12-08T15:50:26.842Z,2.33
2022-12-08T15:52:57.810Z,2.40
2022-12-08T15:55:25.393Z,2.45
2022-12-08T16:00:57.960Z,2.55
2022-12-08T16:09:17.634Z,2.67
2022-12-08T16:12:08.163Z,2.70
2022-12-08T16:17:25.835Z,2.72
2022-12-08T16:19:52.447Z,2.72
2022-12-08T16:25:21.622Z,2.65
2022-12-08T16:28:12.632Z,2.62
2022-12-08T16:30:40.857Z,2.55
2022-12-08T16:33:07.467Z,2.50
2022-12-08T16:35:34.458Z,2.46
2022-12-08T16:38:02.610Z,2.44
2022-12-08T16:40:31.018Z,2.35
2022-12-08T16:42:59.591Z,2.32
2022-12-08T16:45:30.374Z,2.28
2022-12-08T16:48:01.429Z,2.21
2022-12-08T16:50:32.856Z,2.15
2022-12-08T16:53:03.349Z,2.13
2022-12-08T16:55:30.328Z,2.09
2022-12-08T16:57:57.090Z,2.08
2022-12-08T17:00:26.043Z,2.10
2022-12-08T17:02:53.017Z,2.13
2022-12-08T17:05:22.561Z,2.18
2022-12-08T17:07:51.441Z,2.22
2022-12-08T17:10:27.053Z,2.24
2022-12-08T17:12:55.163Z,2.25
2022-12-08T17:15:24.061Z,2.23
2022-12-08T17:17:50.712Z,2.24
2022-12-08T17:20:26.195Z,2.23
2022-12-08T17:22:57.917Z,2.23
2022-12-08T17:25:26.389Z,2.23
2022-12-08T17:27:53.097Z,2.24
2022-12-08T17:30:20.196Z,2.25
2022-12-08T17:32:50.071Z,2.20
2022-12-08T17:35:16.605Z,2.17
2022-12-08T17:37:43.689Z,2.10
2022-12-08T17:40:13.897Z,2.06
2022-12-08T17:42:40.792Z,2.01
2022-12-08T17:45:13.057Z,1.96
2022-12-08T17:47:39.545Z,1.91
2022-12-08T17:50:09.712Z,1.91
2022-12-08T17:52:36.672Z,1.89
2022-12-08T17:55:03.816Z,1.87
2022-12-08T17:57:31.040Z,1.81
2022-12-08T17:59:58.060Z,1.69
2022-12-08T18:02:25.497Z,1.61
2022-12-08T18:04:54.697Z,1.55
2022-12-08T18:07:21.919Z,1.52
2022-12-08T18:09:48.885Z,1.53
2022-12-08T18:12:19.257Z,1.52
2022-12-08T18:14:52.520Z,1.56
2022-12-08T18:17:19.391Z,1.58
2022-12-08T18:19:46.177Z,1.60
2022-12-08T18:22:13.192Z,1.60
2022-12-08T18:24:39.893Z,1.56
2022-12-08T18:27:06.773Z,1.51
2022-12-08T18:29:33.624Z,1.47
2022-12-08T18:32:05.693Z,1.46
2022-12-08T18:34:32.183Z,1.53
2022-12-08T18:37:01.688Z,1.62
2022-12-08T18:39:31.680Z,1.65
2022-12-08T18:41:59.613Z,1.67
2022-12-08T18:44:26.617Z,1.72
2022-12-08T18:46:53.223Z,1.76
2022-12-08T18:49:20.364Z,1.75
2022-12-08T18:51:47.363Z,1.75
2022-12-08T18:54:14.432Z,1.72
2022-12-08T18:56:41.213Z,1.68
2022-12-08T18:59:11.250Z,1.65
2022-12-08T19:01:40.588Z,1.59
2022-12-08T19:04:28.049Z,1.55
2022-12-08T19:06:55.570Z,1.48
2022-12-08T19:09:22.818Z,1.41
2022-12-08T19:11:49.441Z,1.40
2022-12-08T19:14:18.367Z,1.41
2022-12-08T19:16:46.706Z,1.43
2022-12-08T19:19:13.392Z,1.42
2022-12-08T19:21:46.133Z,1.43
2022-12-08T19:24:13.688Z,1.52
2022-12-08T19:26:40.723Z,1.55
2022-12-08T19:29:07.329Z,1.61
2022-12-08T19:31:36.468Z,1.66
2022-12-08T19:34:03.362Z,1.72
2022-12-08T19:36:35.495Z,1.72
2022-12-08T19:39:22.520Z,1.74
2022-12-08T19:42:08.279Z,1.79
2022-12-08T19:44:53.063Z,1.80
2022-12-08T19:47:25.625Z,1.87
2022-12-08T19:49:55.031Z,1.88
2022-12-08T19:52:22.008Z,1.89
2022-12-08T19:54:48.982Z,1.90
2022-12-08T19:57:16.385Z,1.91
2022-12-08T19:59:43.721Z,1.93
2022-12-08T20:02:11.346Z,1.95
2022-12-08T20:04:38.215Z,1.97
2022-12-08T20:07:12.720Z,1.97
2022-12-08T20:09:39.656Z,2.00
2022-12-08T20:12:08.263Z,2.02
2022-12-08T20:14:35.259Z,2.04
2022-12-08T20:17:04.127Z,2.02
2022-12-08T20:19:31.341Z,2.03
2022-12-08T20:21:57.997Z,2.04
2022-12-08T20:24:24.862Z,2.04
2022-12-08T20:26:54.147Z,2.08
2022-12-08T20:29:21.024Z,2.09
2022-12-08T20:31:48.038Z,2.11
2022-12-08T20:34:19.050Z,2.11
2022-12-08T20:36:48.622Z,2.12
2022-12-08T20:39:17.397Z,2.14
2022-12-08T20:41:45.515Z,2.14
2022-12-08T20:44:12.941Z,2.16
2022-12-08T20:46:41.779Z,2.15
2022-12-08T20:49:15.068Z,2.19
2022-12-08T20:51:42.171Z,2.20
2022-12-08T20:54:10.287Z,2.19
2022-12-08T20:56:43.361Z,2.16
2022-12-08T20:59:17.448Z,2.17
2022-12-08T21:01:44.054Z,2.18
2022-12-08T21:04:12.800Z,2.20
2022-12-08T21:06:39.474Z,2.19
2022-12-08T21:09:06.351Z,2.19
2022-12-08T21:11:33.491Z,2.21
2022-12-08T21:14:02.400Z,2.24
2022-12-08T21:16:29.327Z,2.21
2022-12-08T21:18:56.271Z,2.24
2022-12-08T21:21:26.230Z,2.25
2022-12-08T21:23:54.187Z,2.27
2022-12-08T21:26:26.515Z,2.29
2022-12-08T21:28:54.753Z,2.27
2022-12-08T21:31:22.292Z,2.27
2022-12-08T21:33:49.617Z,2.24
2022-12-08T21:36:20.028Z,2.24
2022-12-08T21:38:47.625Z,2.24
2022-12-08T21:41:42.059Z,2.23
2022-12-08T21:44:10.944Z,2.26
2022-12-08T21:46:37.638Z,2.27
2022-12-08T21:49:05.105Z,2.28
2022-12-08T21:51:33.864Z,2.29
2022-12-08T21:54:01.023Z,2.33
2022-12-08T21:56:27.864Z,2.31
2022-12-08T21:58:54.676Z,2.29
2022-12-08T22:01:21.493Z,2.30
2022-12-08T22:03:48.844Z,2.32
2022-12-08T22:06:18.011Z,2.30
2022-12-08T22:08:44.856Z,2.31
2022-12-08T22:11:13.218Z,2.32
2022-12-08T22:13:41.756Z,2.29
2022-12-08T22:16:11.572Z,2.31
2022-12-08T22:18:40.074Z,2.33
2022-12-08T22:21:15.059Z,2.34
2022-12-08T22:23:42.105Z,2.33
2022-12-08T22:26:14.501Z,2.29
2022-12-08T22:28:44.847Z,2.26
2022-12-08T22:31:17.270Z,2.27
2022-12-08T22:33:44.451Z,2.30
2022-12-08T22:36:17.513Z,2.33
2022-12-08T22:38:44.134Z,2.34
2022-12-08T22:41:10.685Z,2.36
2022-12-08T22:43:39.572Z,2.30
2022-12-08T22:46:26.398Z,2.23
2022-12-08T22:48:55.259Z,2.18
2022-12-08T22:51:21.977Z,2.13
2022-12-08T22:53:49.145Z,2.09
2022-12-08T22:56:17.629Z,2.04
2022-12-08T22:58:45.555Z,2.02
2022-12-08T23:01:41.612Z,2.04
2022-12-08T23:04:17.185Z,2.06
2022-12-08T23:06:44.411Z,2.03
2022-12-08T23:09:12.041Z,2.00
2022-12-08T23:11:39.179Z,1.98
2022-12-08T23:14:06.063Z,1.98
2022-12-08T23:16:33.704Z,2.00
2022-12-08T23:19:00.440Z,1.98
2022-12-08T23:21:27.565Z,1.98
2022-12-08T23:23:54.750Z,1.94
2022-12-08T23:26:27.410Z,1.93
2022-12-08T23:28:55.040Z,1.92
2022-12-08T23:31:22.503Z,1.92
2022-12-08T23:33:49.537Z,1.88
2022-12-08T23:36:20.432Z,1.80
2022-12-08T23:38:47.620Z,1.73
2022-12-08T23:41:16.577Z,1.67
2022-12-08T23:43:46.232Z,1.63
2022-12-08T23:46:14.381Z,1.63
2022-12-08T23:48:42.776Z,1.66
2022-12-08T23:51:09.787Z,1.73
2022-12-08T23:53:36.839Z,1.73
2022-12-08T23:56:09.065Z,1.76
2022-12-08T23:58:40.044Z,1.77
